createdAt,value
2022-08-19T00:01:29.121Z,22.00
2022-08-19T00:03:57.859Z,21.80
2022-08-19T00:06:25.451Z,22.10
2022-08-19T00:08:52.237Z,22.00
2022-08-19T00:11:25.726Z,22.00
2022-08-19T00:13:53.071Z,22.00
2022-08-19T00:16:25.318Z,22.30
2022-08-19T00:18:53.933Z,22.50
2022-08-19T00:21:20.681Z,22.50
2022-08-19T00:23:48.263Z,22.50
2022-08-19T00:26:15.073Z,22.40
2022-08-19T00:28:41.812Z,22.40
2022-08-19T00:31:09.830Z,22.50
2022-08-19T00:33:37.099Z,22.40
2022-08-19T00:36:07.140Z,22.40
2022-08-19T00:38:37.208Z,22.40
2022-08-19T00:41:06.204Z,22.40
2022-08-19T00:43:33.601Z,22.40
2022-08-19T00:46:01.691Z,22.30
2022-08-19T00:48:28.510Z,22.10
2022-08-19T00:50:55.831Z,21.90
2022-08-19T00:53:27.750Z,21.90
2022-08-19T00:55:58.693Z,21.90
2022-08-19T00:58:29.689Z,22.00
2022-08-19T01:00:56.485Z,22.00
2022-08-19T01:03:23.561Z,22.00
2022-08-19T01:05:52.720Z,22.00
2022-08-19T01:08:20.732Z,22.00
2022-08-19T01:10:50.536Z,22.00
2022-08-19T01:13:19.641Z,22.00
2022-08-19T01:15:54.544Z,21.80
2022-08-19T01:18:22.648Z,22.00
2022-08-19T01:20:50.125Z,22.00
2022-08-19T01:23:19.739Z,22.00
2022-08-19T01:25:52.661Z,22.00
2022-08-19T01:28:37.178Z,22.10
2022-08-19T01:31:08.342Z,22.00
2022-08-19T01:33:35.443Z,22.00
2022-08-19T01:36:08.379Z,22.10
2022-08-19T01:38:43.989Z,22.00
2022-08-19T01:41:12.391Z,22.00
2022-08-19T01:43:39.585Z,22.00
2022-08-19T01:46:26.478Z,21.90
2022-08-19T01:48:53.335Z,21.80
2022-08-19T01:51:20.213Z,21.80
2022-08-19T01:53:49.979Z,21.70
2022-08-19T01:56:17.215Z,21.60
2022-08-19T01:58:51.085Z,21.70
2022-08-19T02:01:18.741Z,21.50
2022-08-19T02:03:46.222Z,21.40
2022-08-19T02:06:14.054Z,21.40
2022-08-19T02:08:41.153Z,21.30
2022-08-19T02:11:09.095Z,21.10
2022-08-19T02:13:36.262Z,20.70
2022-08-19T02:16:04.724Z,20.60
2022-08-19T02:18:31.610Z,20.70
2022-08-19T02:20:58.570Z,20.70
2022-08-19T02:23:25.513Z,20.80
2022-08-19T02:25:56.296Z,20.90
2022-08-19T02:28:23.958Z,21.00
2022-08-19T02:30:50.922Z,20.90
2022-08-19T02:33:18.468Z,21.10
2022-08-19T02:35:46.740Z,21.10
2022-08-19T02:38:26.704Z,21.10
2022-08-19T02:40:56.025Z,21.30
2022-08-19T02:43:27.893Z,21.40
2022-08-19T02:45:55.552Z,21.50
2022-08-19T02:48:25.124Z,21.50
2022-08-19T02:50:55.660Z,21.50
2022-08-19T02:53:28.329Z,21.50
2022-08-19T02:55:55.893Z,21.60
2022-08-19T02:58:25.503Z,21.50
2022-08-19T03:00:54.420Z,21.50
2022-08-19T03:03:26.853Z,21.50
2022-08-19T03:06:05.310Z,21.50
2022-08-19T03:08:40.024Z,21.50
2022-08-19T03:11:07.475Z,21.50
2022-08-19T03:13:38.297Z,21.50
2022-08-19T03:16:08.194Z,21.40
2022-08-19T03:18:35.397Z,21.40
2022-08-19T03:21:02.417Z,21.40
2022-08-19T03:23:32.132Z,21.40
2022-08-19T03:26:15.737Z,21.50
2022-08-19T03:28:51.280Z,21.20
2022-08-19T03:31:41.806Z,21.20
2022-08-19T03:34:21.484Z,21.30
2022-08-19T03:36:55.176Z,21.20
2022-08-19T03:39:43.319Z,21.20
2022-08-19T03:42:32.708Z,21.20
2022-08-19T03:45:02.064Z,21.20
2022-08-19T03:47:29.436Z,21.20
2022-08-19T03:49:57.123Z,21.20
2022-08-19T03:52:24.453Z,21.20
2022-08-19T03:54:53.068Z,21.10
2022-08-19T03:57:31.962Z,21.10
2022-08-19T04:00:21.847Z,21.20
2022-08-19T04:03:00.526Z,21.20
2022-08-19T04:05:31.715Z,21.20
2022-08-19T04:08:03.877Z,21.30
2022-08-19T04:10:55.983Z,21.20
2022-08-19T04:13:51.737Z,21.10
2022-08-19T04:16:35.664Z,21.10
2022-08-19T04:19:22.761Z,21.20
2022-08-19T04:25:17.797Z,21.30
2022-08-19T04:30:44.890Z,21.50
2022-08-19T04:36:53.640Z,21.50
2022-08-19T04:42:49.039Z,21.50
2022-08-19T04:45:26.672Z,21.50
2022-08-19T04:48:26.405Z,21.40
2022-08-19T04:54:37.380Z,21.60
2022-08-19T05:00:03.259Z,21.70
2022-08-19T05:03:13.585Z,21.80
2022-08-19T05:14:35.517Z,21.90
2022-08-19T05:21:36.090Z,21.90
2022-08-19T05:25:09.404Z,20.50
2022-08-19T05:36:25.060Z,22.40
2022-08-19T06:01:19.481Z,22.80
2022-08-19T06:04:08.399Z,22.70
2022-08-19T06:07:01.719Z,22.70
2022-08-19T06:09:59.212Z,22.80
2022-08-19T06:12:57.718Z,22.70
2022-08-19T06:15:33.065Z,22.70
2022-08-19T06:18:20.847Z,22.80
2022-08-19T06:23:48.210Z,22.90
2022-08-19T06:26:30.882Z,22.90
2022-08-19T06:32:12.308Z,22.80
2022-08-19T06:34:49.824Z,22.90
2022-08-19T06:37:35.461Z,22.80
2022-08-19T06:40:23.099Z,23.00
2022-08-19T06:45:52.031Z,23.10
2022-08-19T06:48:45.327Z,23.20
2022-08-19T06:55:16.121Z,23.40
2022-08-19T06:57:54.852Z,23.30
2022-08-19T07:00:41.980Z,23.50
2022-08-19T07:03:25.320Z,23.60
2022-08-19T07:06:43.728Z,23.60
2022-08-19T07:09:41.660Z,23.40
2022-08-19T07:15:09.957Z,23.90
2022-08-19T07:17:37.711Z,23.80
2022-08-19T07:20:09.707Z,24.00
2022-08-19T07:23:15.789Z,23.80
2022-08-19T07:25:43.678Z,23.80
2022-08-19T07:28:19.666Z,23.80
2022-08-19T07:30:54.522Z,23.80
2022-08-19T07:33:22.237Z,23.70
2022-08-19T07:35:49.988Z,23.80
2022-08-19T07:38:17.513Z,23.90
2022-08-19T07:40:46.366Z,24.00
2022-08-19T07:43:16.971Z,24.10
2022-08-19T07:45:44.950Z,24.00
2022-08-19T07:48:11.657Z,24.00
2022-08-19T07:50:38.837Z,24.10
2022-08-19T07:53:05.668Z,24.10
2022-08-19T07:55:41.310Z,23.90
2022-08-19T07:58:13.245Z,23.80
2022-08-19T08:00:40.188Z,23.80
2022-08-19T08:03:06.998Z,23.90
2022-08-19T08:05:52.249Z,23.90
2022-08-19T08:08:37.265Z,23.90
2022-08-19T08:11:12.920Z,23.90
2022-08-19T08:13:42.570Z,24.00
2022-08-19T08:16:10.394Z,23.90
2022-08-19T08:18:42.666Z,24.10
2022-08-19T08:21:10.241Z,23.90
2022-08-19T08:23:37.318Z,23.70
2022-08-19T08:26:06.645Z,23.50
2022-08-19T08:28:34.144Z,23.70
2022-08-19T08:31:01.130Z,23.80
2022-08-19T08:33:34.044Z,23.90
2022-08-19T08:36:03.967Z,24.10
2022-08-19T08:38:36.898Z,24.60
2022-08-19T08:41:13.647Z,25.00
2022-08-19T08:43:45.244Z,25.10
2022-08-19T08:46:30.386Z,24.50
2022-08-19T08:49:04.543Z,24.80
2022-08-19T08:51:36.051Z,25.10
2022-08-19T08:54:07.020Z,25.20
2022-08-19T08:56:34.240Z,25.30
2022-08-19T08:59:10.261Z,25.10
2022-08-19T09:01:37.115Z,25.20
2022-08-19T09:04:08.252Z,25.30
2022-08-19T09:06:45.954Z,25.20
2022-08-19T09:09:17.457Z,25.20
2022-08-19T09:11:52.879Z,25.00
2022-08-19T09:14:49.757Z,25.00
2022-08-19T09:17:18.349Z,25.00
2022-08-19T09:19:54.751Z,24.90
2022-08-19T09:22:25.428Z,25.00
2022-08-19T09:24:53.450Z,24.80
2022-08-19T09:27:21.221Z,24.80
2022-08-19T09:29:49.305Z,25.00
2022-08-19T09:32:26.101Z,25.20
2022-08-19T09:34:54.798Z,25.20
2022-08-19T09:37:22.219Z,25.10
2022-08-19T09:39:52.512Z,24.80
2022-08-19T09:42:30.323Z,25.00
2022-08-19T09:45:05.087Z,25.10
2022-08-19T09:47:36.393Z,25.00
2022-08-19T09:50:04.159Z,25.00
2022-08-19T09:52:32.601Z,25.00
2022-08-19T09:54:59.904Z,25.10
2022-08-19T09:57:26.720Z,25.00
2022-08-19T09:59:53.797Z,25.00
2022-08-19T10:02:22.326Z,24.80
2022-08-19T10:05:09.737Z,24.90
2022-08-19T10:07:36.812Z,24.80
2022-08-19T10:10:04.438Z,24.70
2022-08-19T10:12:31.256Z,24.60
2022-08-19T10:14:58.247Z,24.60
2022-08-19T10:17:31.514Z,24.70
2022-08-19T10:20:10.195Z,24.80
2022-08-19T10:22:38.214Z,24.80
2022-08-19T10:25:07.055Z,24.70
2022-08-19T10:27:33.958Z,24.60
2022-08-19T10:30:02.789Z,24.80
2022-08-19T10:32:34.092Z,25.00
2022-08-19T10:35:01.729Z,25.40
2022-08-19T10:37:29.002Z,25.60
2022-08-19T10:39:58.162Z,25.40
2022-08-19T10:42:25.033Z,25.30
2022-08-19T10:44:52.185Z,25.50
2022-08-19T10:47:25.492Z,25.40
2022-08-19T10:50:13.066Z,25.20
2022-08-19T10:52:40.842Z,25.10
2022-08-19T10:55:37.051Z,24.90
2022-08-19T10:58:04.045Z,24.70
2022-08-19T11:00:31.997Z,24.70
2022-08-19T11:02:58.990Z,24.50
2022-08-19T11:05:26.478Z,24.40
2022-08-19T11:07:53.486Z,24.50
2022-08-19T11:10:21.844Z,24.60
2022-08-19T11:12:54.561Z,24.60
2022-08-19T11:15:21.789Z,24.50
2022-08-19T11:17:48.798Z,24.60
2022-08-19T11:20:16.292Z,24.50
2022-08-19T11:22:43.954Z,24.40
2022-08-19T11:25:13.835Z,24.30
2022-08-19T11:27:42.450Z,24.10
2022-08-19T11:30:13.064Z,24.10
2022-08-19T11:32:40.293Z,24.00
2022-08-19T11:35:07.838Z,24.30
2022-08-19T11:37:37.554Z,24.40
2022-08-19T11:40:07.069Z,24.60
2022-08-19T11:42:51.965Z,24.40
2022-08-19T11:45:18.865Z,24.40
2022-08-19T11:47:46.498Z,24.40
2022-08-19T11:50:13.328Z,24.40
2022-08-19T11:52:40.011Z,24.40
2022-08-19T11:55:09.132Z,24.50
2022-08-19T11:57:35.981Z,24.60
2022-08-19T12:00:04.847Z,24.80
2022-08-19T12:02:32.189Z,25.00
2022-08-19T12:04:59.142Z,25.20
2022-08-19T12:07:25.934Z,25.00
2022-08-19T12:09:52.676Z,25.00
2022-08-19T12:12:20.316Z,24.70
2022-08-19T12:14:47.446Z,24.90
2022-08-19T12:17:14.117Z,25.40
2022-08-19T12:19:40.894Z,25.40
2022-08-19T12:22:07.923Z,25.30
2022-08-19T12:24:35.155Z,25.10
2022-08-19T12:27:03.158Z,25.00
2022-08-19T12:29:31.055Z,25.00
2022-08-19T12:32:03.852Z,25.00
2022-08-19T12:34:32.754Z,25.00
2022-08-19T12:37:01.844Z,25.10
2022-08-19T12:39:28.621Z,25.30
2022-08-19T12:41:55.474Z,25.50
2022-08-19T12:44:29.389Z,25.50
2022-08-19T12:46:59.873Z,25.20
2022-08-19T12:49:44.439Z,24.80
2022-08-19T12:52:16.416Z,24.70
2022-08-19T12:54:44.063Z,24.60
2022-08-19T12:57:11.667Z,24.70
2022-08-19T12:59:39.222Z,24.80
2022-08-19T13:02:08.404Z,25.30
2022-08-19T13:04:38.130Z,25.50
2022-08-19T13:07:04.877Z,25.40
2022-08-19T13:09:31.620Z,25.40
2022-08-19T13:11:58.337Z,25.30
2022-08-19T13:14:25.066Z,25.20
2022-08-19T13:16:53.828Z,25.10
2022-08-19T13:19:23.433Z,25.20
2022-08-19T13:21:51.404Z,25.40
2022-08-19T13:24:31.357Z,25.40
2022-08-19T13:27:01.069Z,25.20
2022-08-19T13:29:46.157Z,25.10
2022-08-19T13:32:31.169Z,25.20
2022-08-19T13:34:59.278Z,25.10
2022-08-19T13:37:40.566Z,25.20
2022-08-19T13:40:13.035Z,25.00
2022-08-19T13:42:40.325Z,25.10
2022-08-19T13:45:08.103Z,25.20
2022-08-19T13:47:35.040Z,25.20
2022-08-19T13:50:03.770Z,25.30
2022-08-19T13:52:30.643Z,25.40
2022-08-19T13:54:57.521Z,25.50
2022-08-19T13:57:24.247Z,25.50
2022-08-19T13:59:51.136Z,24.80
2022-08-19T14:02:20.714Z,24.90
2022-08-19T14:04:47.528Z,25.00
2022-08-19T14:07:14.927Z,25.00
2022-08-19T14:09:41.668Z,24.90
2022-08-19T14:12:09.895Z,24.80
2022-08-19T14:14:38.331Z,24.80
2022-08-19T14:17:07.467Z,24.80
2022-08-19T14:19:34.422Z,24.80
2022-08-19T14:22:01.414Z,24.70
2022-08-19T14:24:29.115Z,24.60
2022-08-19T14:26:55.884Z,24.60
2022-08-19T14:29:22.582Z,24.60
2022-08-19T14:31:49.374Z,24.60
2022-08-19T14:34:16.215Z,24.70
2022-08-19T14:36:43.255Z,24.80
2022-08-19T14:39:10.078Z,24.90
2022-08-19T14:41:40.488Z,24.90
2022-08-19T14:44:07.280Z,24.80
2022-08-19T14:46:34.425Z,24.80
2022-08-19T14:49:01.197Z,24.90
2022-08-19T14:51:36.199Z,24.70
2022-08-19T14:54:02.949Z,24.60
2022-08-19T14:56:31.560Z,24.70
2022-08-19T14:59:01.256Z,24.50
2022-08-19T15:01:28.583Z,24.30
2022-08-19T15:03:55.483Z,24.40
2022-08-19T15:06:23.295Z,24.40
2022-08-19T15:08:51.887Z,24.40
2022-08-19T15:11:21.454Z,24.50
2022-08-19T15:13:48.264Z,24.40
2022-08-19T15:16:18.321Z,24.50
2022-08-19T15:18:47.114Z,24.40
2022-08-19T15:21:16.762Z,24.40
2022-08-19T15:23:54.127Z,24.30
2022-08-19T15:26:21.595Z,24.10
2022-08-19T15:28:48.539Z,24.10
2022-08-19T15:31:28.392Z,24.20
2022-08-19T15:33:57.570Z,24.20
2022-08-19T15:36:25.508Z,24.20
2022-08-19T15:38:52.781Z,24.20
2022-08-19T15:41:24.372Z,24.20
2022-08-19T15:43:53.320Z,24.00
2022-08-19T15:46:22.962Z,23.90
2022-08-19T15:48:55.875Z,23.90
2022-08-19T15:51:24.867Z,23.90
2022-08-19T15:53:52.610Z,23.90
2022-08-19T15:56:19.423Z,23.90
2022-08-19T15:59:06.899Z,23.90
2022-08-19T16:01:53.342Z,23.90
2022-08-19T16:04:38.372Z,24.00
2022-08-19T16:07:07.781Z,23.90
2022-08-19T16:09:35.611Z,23.80
2022-08-19T16:12:05.247Z,23.80
2022-08-19T16:14:34.520Z,23.60
2022-08-19T16:17:02.698Z,23.50
2022-08-19T16:19:30.307Z,23.50
2022-08-19T16:21:58.294Z,23.40
2022-08-19T16:24:27.555Z,23.40
2022-08-19T16:26:56.085Z,23.30
2022-08-19T16:29:34.461Z,23.30
2022-08-19T16:32:12.240Z,23.30
2022-08-19T16:34:40.719Z,23.40
2022-08-19T16:37:07.765Z,23.50
2022-08-19T16:39:34.698Z,23.50
2022-08-19T16:42:01.751Z,23.70
2022-08-19T16:44:29.773Z,23.80
2022-08-19T16:47:00.672Z,23.80
2022-08-19T16:49:53.267Z,23.90
2022-08-19T16:52:17.106Z,23.80
2022-08-19T16:54:44.782Z,23.80
2022-08-19T16:57:12.601Z,23.70
2022-08-19T16:59:48.445Z,23.50
2022-08-19T17:02:17.246Z,23.80
2022-08-19T17:04:57.369Z,23.80
2022-08-19T17:07:25.806Z,23.80
2022-08-19T17:09:52.632Z,23.70
2022-08-19T17:12:19.407Z,23.50
2022-08-19T17:14:46.195Z,23.40
2022-08-19T17:17:13.990Z,23.40
2022-08-19T17:19:42.751Z,23.20
2022-08-19T17:22:12.262Z,23.00
2022-08-19T17:24:40.541Z,23.00
2022-08-19T17:27:08.551Z,23.10
2022-08-19T17:29:35.379Z,23.10
2022-08-19T17:34:56.908Z,22.90
2022-08-19T17:37:30.928Z,22.90
2022-08-19T17:40:01.631Z,22.80
2022-08-19T17:48:20.587Z,22.60
2022-08-19T17:51:04.434Z,22.70
2022-08-19T17:53:44.452Z,22.60
2022-08-19T17:56:12.967Z,22.80
2022-08-19T17:58:40.172Z,22.70
2022-08-19T18:01:10.880Z,22.70
2022-08-19T18:03:38.452Z,22.60
2022-08-19T18:06:09.233Z,22.60
2022-08-19T18:08:44.201Z,22.50
2022-08-19T18:11:13.552Z,22.50
2022-08-19T18:14:01.445Z,22.60
2022-08-19T18:19:52.315Z,22.40
2022-08-19T18:25:48.038Z,22.40
2022-08-19T18:28:33.379Z,22.40
2022-08-19T18:52:51.925Z,22.20
2022-08-19T18:55:53.375Z,22.20
2022-08-19T18:58:52.894Z,22.20
2022-08-19T19:05:11.264Z,22.20
2022-08-19T19:10:42.646Z,22.20
2022-08-19T19:13:34.112Z,22.30
2022-08-19T19:16:37.256Z,22.10
2022-08-19T19:26:05.854Z,22.10
2022-08-19T19:44:57.955Z,22.20
2022-08-19T19:47:52.590Z,22.20
2022-08-19T19:57:10.567Z,22.30
2022-08-19T20:03:32.788Z,22.00
2022-08-19T20:12:13.109Z,22.10
2022-08-19T20:20:34.944Z,22.20
2022-08-19T20:26:32.315Z,22.20
2022-08-19T20:29:13.382Z,22.10
2022-08-19T20:31:58.976Z,21.60
2022-08-19T20:34:26.748Z,22.00
2022-08-19T20:36:53.887Z,22.00
2022-08-19T20:39:20.686Z,22.00
2022-08-19T20:41:48.044Z,22.00
2022-08-19T20:44:15.190Z,22.10
2022-08-19T20:46:42.188Z,22.10
2022-08-19T20:49:22.355Z,22.20
2022-08-19T20:51:49.064Z,22.10
2022-08-19T20:54:16.203Z,22.00
2022-08-19T20:56:42.994Z,22.00
2022-08-19T20:59:12.637Z,22.00
2022-08-19T21:01:39.564Z,22.00
2022-08-19T21:04:06.326Z,22.10
2022-08-19T21:06:33.887Z,22.10
2022-08-19T21:09:00.647Z,22.20
2022-08-19T21:11:30.431Z,22.30
2022-08-19T21:13:57.507Z,22.40
2022-08-19T21:16:24.585Z,22.70
2022-08-19T21:18:51.293Z,22.70
2022-08-19T21:21:18.072Z,22.60
2022-08-19T21:23:45.531Z,22.80
2022-08-19T21:26:12.390Z,22.90
2022-08-19T21:28:39.199Z,23.00
2022-08-19T21:31:09.682Z,23.00
2022-08-19T21:33:37.693Z,23.00
2022-08-19T21:36:04.829Z,22.90
2022-08-19T21:38:32.101Z,22.80
2022-08-19T21:41:04.213Z,22.80
2022-08-19T21:43:33.177Z,22.80
2022-08-19T21:46:03.621Z,22.70
2022-08-19T21:48:30.436Z,22.40
2022-08-19T21:50:57.149Z,22.40
2022-08-19T21:53:24.027Z,22.50
2022-08-19T21:55:54.036Z,22.50
2022-08-19T21:58:28.357Z,22.40
2022-08-19T22:00:57.800Z,22.30
2022-08-19T22:03:25.064Z,22.40
2022-08-19T22:05:51.948Z,22.40
2022-08-19T22:08:18.739Z,22.50
2022-08-19T22:10:45.584Z,22.50
2022-08-19T22:13:15.610Z,22.20
2022-08-19T22:15:44.062Z,22.20
2022-08-19T22:18:10.804Z,22.60
2022-08-19T22:20:37.664Z,22.50
2022-08-19T22:23:06.088Z,22.50
2022-08-19T22:25:36.039Z,22.50
2022-08-19T22:28:06.388Z,22.40
2022-08-19T22:30:34.469Z,22.30
2022-08-19T22:33:06.290Z,22.20
2022-08-19T22:35:36.809Z,22.20
2022-08-19T22:38:05.846Z,22.30
2022-08-19T22:40:35.804Z,22.30
2022-08-19T22:43:05.616Z,22.20
2022-08-19T22:45:33.330Z,22.10
2022-08-19T22:48:00.202Z,22.10
2022-08-19T22:50:27.966Z,22.00
2022-08-19T22:52:57.337Z,22.00
2022-08-19T22:55:24.609Z,22.00
2022-08-19T22:57:52.806Z,22.00
2022-08-19T23:00:20.804Z,22.00
2022-08-19T23:02:52.380Z,22.10
2022-08-19T23:05:22.338Z,22.00
2022-08-19T23:07:53.220Z,21.90
2022-08-19T23:10:27.342Z,21.80
2022-08-19T23:12:58.052Z,21.80
2022-08-19T23:15:27.778Z,21.80
2022-08-19T23:17:58.074Z,21.90
2022-08-19T23:20:27.898Z,22.00
2022-08-19T23:22:56.820Z,22.00
2022-08-19T23:25:26.054Z,22.00
2022-08-19T23:28:11.178Z,22.00
2022-08-19T23:30:42.640Z,21.90
2022-08-19T23:33:18.663Z,21.90
2022-08-19T23:35:47.167Z,21.80
2022-08-19T23:38:15.759Z,21.50
2022-08-19T23:40:44.082Z,21.80
2022-08-19T23:43:14.781Z,21.80
2022-08-19T23:45:45.253Z,21.60
2022-08-19T23:48:18.338Z,21.60
2022-08-19T23:50:45.832Z,21.60
2022-08-19T23:53:16.613Z,21.60
2022-08-19T23:55:45.891Z,21.60
2022-08-19T23:58:13.854Z,21.70
